sensor_id;sensor_type;location;lat;lon;timestamp;pressure;altitude;pressure_sealevel;temperature;humidity
37486;BME280;23341;50.296;18.960;2023-05-17T00:00:42;52525.72;;;-144.43;100.00
37486;BME280;23341;50.296;18.960;2023-05-17T00:05:55;52559.72;;;-144.43;100.00
37486;BME280;23341;50.296;18.960;2023-05-17T00:11:01;52549.72;;;-144.43;100.00
37486;BME280;23341;50.296;18.960;2023-05-17T00:16:06;52499.72;;;-144.43;100.00
37486;BME280;23341;50.296;18.960;2023-05-17T00:21:10;52499.72;;;-144.43;100.00
37486;BME280;23341;50.296;18.960;2023-05-17T00:26:15;52503.72;;;-144.43;100.00
37486;BME280;23341;50.296;18.960;2023-05-17T00:31:20;52553.72;;;-144.43;100.00
37486;BME280;23341;50.296;18.960;2023-05-17T00:36:24;52453.72;;;-144.43;100.00
37486;BME280;23341;50.296;18.960;2023-05-17T00:41:30;52485.72;;;-144.43;100.00
37486;BME280;23341;50.296;18.960;2023-05-17T00:46:35;52511.72;;;-144.43;100.00
37486;BME280;23341;50.296;18.960;2023-05-17T00:51:39;52511.72;;;-144.43;100.00
37486;BME280;23341;50.296;18.960;2023-05-17T00:56:46;52501.72;;;-144.43;100.00
37486;BME280;23341;50.296;18.960;2023-05-17T01:01:51;52497.72;;;-144.43;100.00
37486;BME280;23341;50.296;18.960;2023-05-17T01:06:55;52489.72;;;-144.43;100.00
37486;BME280;23341;50.296;18.960;2023-05-17T01:12:10;52543.72;;;-144.43;100.00
37486;BME280;23341;50.296;18.960;2023-05-17T01:17:23;52547.72;;;-144.43;100.00
37486;BME280;23341;50.296;18.960;2023-05-17T01:22:43;52577.75;;;-144.43;100.00
37486;BME280;23341;50.296;18.960;2023-05-17T01:27:53;52559.72;;;-144.43;100.00
37486;BME280;23341;50.296;18.960;2023-05-17T01:32:59;52565.72;;;-144.43;100.00
37486;BME280;23341;50.296;18.960;2023-05-17T01:38:06;52569.72;;;-144.43;100.00
37486;BME280;23341;50.296;18.960;2023-05-17T01:43:19;52545.72;;;-144.43;100.00
37486;BME280;23341;50.296;18.960;2023-05-17T01:48:29;52563.72;;;-144.43;100.00
37486;BME280;23341;50.296;18.960;2023-05-17T01:53:38;52577.75;;;-144.43;100.00
37486;BME280;23341;50.296;18.960;2023-05-17T01:58:45;52581.75;;;-144.43;100.00
37486;BME280;23341;50.296;18.960;2023-05-17T02:03:51;52581.75;;;-144.43;100.00
37486;BME280;23341;50.296;18.960;2023-05-17T02:08:55;52561.72;;;-144.43;100.00
37486;BME280;23341;50.296;18.960;2023-05-17T02:14:04;52557.72;;;-144.43;100.00
37486;BME280;23341;50.296;18.960;2023-05-17T02:19:08;52537.72;;;-144.43;100.00
37486;BME280;23341;50.296;18.960;2023-05-17T02:24:15;52531.72;;;-144.43;100.00
37486;BME280;23341;50.296;18.960;2023-05-17T02:29:21;52531.72;;;-144.43;100.00
37486;BME280;23341;50.296;18.960;2023-05-17T02:34:27;52553.72;;;-144.43;100.00
37486;BME280;23341;50.296;18.960;2023-05-17T02:39:31;52555.72;;;-144.43;100.00
37486;BME280;23341;50.296;18.960;2023-05-17T02:44:37;52557.72;;;-144.43;100.00
37486;BME280;23341;50.296;18.960;2023-05-17T02:49:41;52521.72;;;-144.43;100.00
37486;BME280;23341;50.296;18.960;2023-05-17T02:54:46;52567.72;;;-144.43;100.00
37486;BME280;23341;50.296;18.960;2023-05-17T02:59:52;52553.72;;;-144.43;100.00
37486;BME280;23341;50.296;18.960;2023-05-17T03:04:56;52505.72;;;-144.43;100.00
37486;BME280;23341;50.296;18.960;2023-05-17T03:10:01;52549.72;;;-144.43;100.00
37486;BME280;23341;50.296;18.960;2023-05-17T03:15:13;52499.72;;;-144.43;100.00
37486;BME280;23341;50.296;18.960;2023-05-17T03:20:18;52499.72;;;-144.43;100.00
37486;BME280;23341;50.296;18.960;2023-05-17T03:25:24;52493.72;;;-144.43;100.00
37486;BME280;23341;50.296;18.960;2023-05-17T03:30:30;52513.72;;;-144.43;100.00
37486;BME280;23341;50.296;18.960;2023-05-17T03:35:35;52535.72;;;-144.43;100.00
37486;BME280;23341;50.296;18.960;2023-05-17T03:40:39;52487.72;;;-144.43;100.00
37486;BME280;23341;50.296;18.960;2023-05-17T03:45:46;52465.72;;;-144.43;100.00
37486;BME280;23341;50.296;18.960;2023-05-17T03:50:53;52445.72;;;-144.43;100.00
37486;BME280;23341;50.296;18.960;2023-05-17T03:55:58;52513.72;;;-144.43;100.00
37486;BME280;23341;50.296;18.960;2023-05-17T04:01:05;52481.72;;;-144.43;100.00
37486;BME280;23341;50.296;18.960;2023-05-17T04:06:11;52445.72;;;-144.43;100.00
37486;BME280;23341;50.296;18.960;2023-05-17T04:11:17;52467.72;;;-144.43;100.00
37486;BME280;23341;50.296;18.960;2023-05-17T04:16:27;52399.72;;;-144.43;100.00
37486;BME280;23341;50.296;18.960;2023-05-17T04:21:31;52417.72;;;-144.43;100.00
37486;BME280;23341;50.296;18.960;2023-05-17T04:26:36;52413.72;;;-144.43;100.00
37486;BME280;23341;50.296;18.960;2023-05-17T04:31:44;52451.72;;;-144.43;100.00
37486;BME280;23341;50.296;18.960;2023-05-17T04:36:51;52389.72;;;-144.43;100.00
37486;BME280;23341;50.296;18.960;2023-05-17T04:41:56;52419.72;;;-144.43;100.00
37486;BME280;23341;50.296;18.960;2023-05-17T04:47:02;52437.72;;;-144.43;100.00
37486;BME280;23341;50.296;18.960;2023-05-17T04:52:07;52445.72;;;-144.43;100.00
37486;BME280;23341;50.296;18.960;2023-05-17T04:57:11;52453.72;;;-144.43;100.00
37486;BME280;23341;50.296;18.960;2023-05-17T05:02:36;52463.72;;;-144.43;100.00
37486;BME280;23341;50.296;18.960;2023-05-17T05:07:41;52413.72;;;-144.43;100.00
37486;BME280;23341;50.296;18.960;2023-05-17T05:12:47;52413.72;;;-144.43;100.00
37486;BME280;23341;50.296;18.960;2023-05-17T05:17:53;52377.72;;;-144.43;100.00
37486;BME280;23341;50.296;18.960;2023-05-17T05:22:57;52437.72;;;-144.43;100.00
37486;BME280;23341;50.296;18.960;2023-05-17T05:28:03;52425.72;;;-144.43;100.00
37486;BME280;23341;50.296;18.960;2023-05-17T05:33:11;52399.72;;;-144.43;100.00
37486;BME280;23341;50.296;18.960;2023-05-17T05:38:17;52379.72;;;-144.43;100.00
37486;BME280;23341;50.296;18.960;2023-05-17T05:43:22;52397.72;;;-144.43;100.00
37486;BME280;23341;50.296;18.960;2023-05-17T05:48:28;52421.72;;;-144.43;100.00
37486;BME280;23341;50.296;18.960;2023-05-17T05:53:33;52383.72;;;-144.43;100.00
37486;BME280;23341;50.296;18.960;2023-05-17T05:58:38;52437.72;;;-144.43;100.00
37486;BME280;23341;50.296;18.960;2023-05-17T06:03:45;52395.72;;;-144.43;100.00
37486;BME280;23341;50.296;18.960;2023-05-17T06:08:50;52381.72;;;-144.43;100.00
37486;BME280;23341;50.296;18.960;2023-05-17T06:13:54;52405.72;;;-144.43;100.00
37486;BME280;23341;50.296;18.960;2023-05-17T06:19:00;52367.72;;;-144.43;100.00
37486;BME280;23341;50.296;18.960;2023-05-17T06:24:05;52417.72;;;-144.43;100.00
37486;BME280;23341;50.296;18.960;2023-05-17T06:29:09;52383.72;;;-144.43;100.00
37486;BME280;23341;50.296;18.960;2023-05-17T06:34:15;52405.72;;;-144.43;100.00
37486;BME280;23341;50.296;18.960;2023-05-17T06:39:20;52413.72;;;-144.43;100.00
37486;BME280;23341;50.296;18.960;2023-05-17T06:44:25;52379.72;;;-144.43;100.00
37486;BME280;23341;50.296;18.960;2023-05-17T06:49:30;52345.72;;;-144.43;100.00
37486;BME280;23341;50.296;18.960;2023-05-17T06:54:35;52365.72;;;-144.43;100.00
37486;BME280;23341;50.296;18.960;2023-05-17T06:59:39;52345.72;;;-144.43;100.00
37486;BME280;23341;50.296;18.960;2023-05-17T07:04:45;52245.72;;;-144.43;100.00
37486;BME280;23341;50.296;18.960;2023-05-17T07:09:50;52285.72;;;-144.43;100.00
37486;BME280;23341;50.296;18.960;2023-05-17T07:14:54;52261.72;;;-144.43;100.00
37486;BME280;23341;50.296;18.960;2023-05-17T07:20:00;52287.72;;;-144.43;100.00
37486;BME280;23341;50.296;18.960;2023-05-17T07:25:06;52245.72;;;-144.43;100.00
37486;BME280;23341;50.296;18.960;2023-05-17T07:30:11;52235.72;;;-144.43;100.00
37486;BME280;23341;50.296;18.960;2023-05-17T07:35:17;52269.72;;;-144.43;100.00
37486;BME280;23341;50.296;18.960;2023-05-17T07:40:23;52261.72;;;-144.43;100.00
37486;BME280;23341;50.296;18.960;2023-05-17T07:45:27;52269.72;;;-144.43;100.00
37486;BME280;23341;50.296;18.960;2023-05-17T07:50:34;52297.72;;;-144.43;100.00
37486;BME280;23341;50.296;18.960;2023-05-17T07:55:38;52293.72;;;-144.43;100.00
37486;BME280;23341;50.296;18.960;2023-05-17T08:00:45;52285.72;;;-144.43;100.00
37486;BME280;23341;50.296;18.960;2023-05-17T08:05:52;52291.72;;;-144.43;100.00
37486;BME280;23341;50.296;18.960;2023-05-17T08:10:57;52265.72;;;-144.43;100.00
37486;BME280;23341;50.296;18.960;2023-05-17T08:16:02;52251.72;;;-144.43;100.00
37486;BME280;23341;50.296;18.960;2023-05-17T08:21:17;52287.72;;;-144.43;100.00
37486;BME280;23341;50.296;18.960;2023-05-17T08:26:22;52331.72;;;-144.43;100.00
37486;BME280;23341;50.296;18.960;2023-05-17T08:31:26;52277.72;;;-144.43;100.00
37486;BME280;23341;50.296;18.960;2023-05-17T08:36:32;52273.72;;;-144.43;100.00
37486;BME280;23341;50.296;18.960;2023-05-17T08:41:36;52313.72;;;-144.43;100.00
37486;BME280;23341;50.296;18.960;2023-05-17T08:46:42;52313.72;;;-144.43;100.00
37486;BME280;23341;50.296;18.960;2023-05-17T08:51:49;52253.72;;;-144.43;100.00
37486;BME280;23341;50.296;18.960;2023-05-17T08:56:57;52227.72;;;-144.43;100.00
37486;BME280;23341;50.296;18.960;2023-05-17T09:02:04;52253.72;;;-144.43;100.00
37486;BME280;23341;50.296;18.960;2023-05-17T09:07:10;52223.72;;;-144.43;100.00
37486;BME280;23341;50.296;18.960;2023-05-17T09:12:17;52265.72;;;-144.43;100.00
37486;BME280;23341;50.296;18.960;2023-05-17T09:17:23;52237.72;;;-144.43;100.00
37486;BME280;23341;50.296;18.960;2023-05-17T09:22:29;52261.72;;;-144.43;100.00
37486;BME280;23341;50.296;18.960;2023-05-17T09:27:34;52251.72;;;-144.43;100.00
37486;BME280;23341;50.296;18.960;2023-05-17T09:32:42;52253.72;;;-144.43;100.00
37486;BME280;23341;50.296;18.960;2023-05-17T09:37:49;52245.72;;;-144.43;100.00
37486;BME280;23341;50.296;18.960;2023-05-17T09:42:54;52313.72;;;-144.43;100.00
37486;BME280;23341;50.296;18.960;2023-05-17T09:48:11;52249.72;;;-144.43;100.00
37486;BME280;23341;50.296;18.960;2023-05-17T09:53:26;52283.72;;;-144.43;100.00
37486;BME280;23341;50.296;18.960;2023-05-17T09:58:32;52263.72;;;-144.43;100.00
37486;BME280;23341;50.296;18.960;2023-05-17T10:03:37;52191.72;;;-144.43;100.00
37486;BME280;23341;50.296;18.960;2023-05-17T10:08:43;52193.72;;;-144.43;100.00
37486;BME280;23341;50.296;18.960;2023-05-17T10:13:53;52205.69;;;-144.43;100.00
37486;BME280;23341;50.296;18.960;2023-05-17T10:18:59;52249.72;;;-144.43;100.00
37486;BME280;23341;50.296;18.960;2023-05-17T10:24:05;52255.72;;;-144.43;100.00
37486;BME280;23341;50.296;18.960;2023-05-17T10:29:10;52215.72;;;-144.43;100.00
37486;BME280;23341;50.296;18.960;2023-05-17T10:34:15;52257.72;;;-144.43;100.00
37486;BME280;23341;50.296;18.960;2023-05-17T10:39:23;52201.69;;;-144.43;100.00
37486;BME280;23341;50.296;18.960;2023-05-17T10:44:30;52215.72;;;-144.43;100.00
37486;BME280;23341;50.296;18.960;2023-05-17T10:49:36;52213.72;;;-144.43;100.00
37486;BME280;23341;50.296;18.960;2023-05-17T10:54:47;52221.72;;;-144.43;100.00
37486;BME280;23341;50.296;18.960;2023-05-17T10:59:55;52223.72;;;-144.43;100.00
37486;BME280;23341;50.296;18.960;2023-05-17T11:05:00;52221.72;;;-144.43;100.00
37486;BME280;23341;50.296;18.960;2023-05-17T11:10:10;52239.72;;;-144.43;100.00
37486;BME280;23341;50.296;18.960;2023-05-17T11:15:16;52271.72;;;-144.43;100.00
37486;BME280;23341;50.296;18.960;2023-05-17T11:20:33;52199.72;;;-144.43;100.00
37486;BME280;23341;50.296;18.960;2023-05-17T11:25:40;52213.72;;;-144.43;100.00
37486;BME280;23341;50.296;18.960;2023-05-17T11:30:45;52189.72;;;-144.43;100.00
37486;BME280;23341;50.296;18.960;2023-05-17T11:35:53;52229.72;;;-144.43;100.00
37486;BME280;23341;50.296;18.960;2023-05-17T11:41:16;52191.72;;;-144.43;100.00
37486;BME280;23341;50.296;18.960;2023-05-17T11:46:23;52197.72;;;-144.43;100.00
37486;BME280;23341;50.296;18.960;2023-05-17T11:51:30;52185.69;;;-144.43;100.00
37486;BME280;23341;50.296;18.960;2023-05-17T11:56:37;52217.72;;;-144.43;100.00
37486;BME280;23341;50.296;18.960;2023-05-17T12:01:46;52209.72;;;-144.43;100.00
37486;BME280;23341;50.296;18.960;2023-05-17T12:06:51;52115.69;;;-144.43;100.00
37486;BME280;23341;50.296;18.960;2023-05-17T12:11:57;52167.69;;;-144.43;100.00
37486;BME280;23341;50.296;18.960;2023-05-17T12:17:02;52177.69;;;-144.43;100.00
37486;BME280;23341;50.296;18.960;2023-05-17T12:22:10;52183.69;;;-144.43;100.00
37486;BME280;23341;50.296;18.960;2023-05-17T12:27:25;52171.69;;;-144.43;100.00
37486;BME280;23341;50.296;18.960;2023-05-17T12:32:29;52165.69;;;-144.43;100.00
37486;BME280;23341;50.296;18.960;2023-05-17T12:37:34;52123.69;;;-144.43;100.00
37486;BME280;23341;50.296;18.960;2023-05-17T12:42:40;52101.69;;;-144.43;100.00
37486;BME280;23341;50.296;18.960;2023-05-17T12:47:45;52073.69;;;-144.43;100.00
37486;BME280;23341;50.296;18.960;2023-05-17T12:52:53;52107.69;;;-144.43;100.00
37486;BME280;23341;50.296;18.960;2023-05-17T12:58:01;52035.69;;;-144.43;100.00
37486;BME280;23341;50.296;18.960;2023-05-17T13:03:08;52135.69;;;-144.43;100.00
37486;BME280;23341;50.296;18.960;2023-05-17T13:08:20;52137.69;;;-144.43;100.00
37486;BME280;23341;50.296;18.960;2023-05-17T13:13:31;52129.69;;;-144.43;100.00
37486;BME280;23341;50.296;18.960;2023-05-17T13:18:49;52139.69;;;-144.43;100.00
37486;BME280;23341;50.296;18.960;2023-05-17T13:23:55;52113.69;;;-144.43;100.00
37486;BME280;23341;50.296;18.960;2023-05-17T13:29:01;52139.69;;;-144.43;100.00
37486;BME280;23341;50.296;18.960;2023-05-17T13:34:05;52121.69;;;-144.43;100.00
37486;BME280;23341;50.296;18.960;2023-05-17T13:39:10;52185.69;;;-144.43;100.00
37486;BME280;23341;50.296;18.960;2023-05-17T13:44:16;52171.69;;;-144.43;100.00
37486;BME280;23341;50.296;18.960;2023-05-17T13:49:20;52169.72;;;-144.43;100.00
37486;BME280;23341;50.296;18.960;2023-05-17T13:54:24;52159.69;;;-144.43;100.00
37486;BME280;23341;50.296;18.960;2023-05-17T13:59:30;52153.69;;;-144.43;100.00
37486;BME280;23341;50.296;18.960;2023-05-17T14:04:35;52159.69;;;-144.43;100.00
37486;BME280;23341;50.296;18.960;2023-05-17T14:09:39;52151.69;;;-144.43;100.00
37486;BME280;23341;50.296;18.960;2023-05-17T14:14:45;52147.69;;;-144.43;100.00
37486;BME280;23341;50.296;18.960;2023-05-17T14:19:49;52157.69;;;-144.43;100.00
37486;BME280;23341;50.296;18.960;2023-05-17T14:24:54;52213.72;;;-144.43;100.00
37486;BME280;23341;50.296;18.960;2023-05-17T14:29:59;52195.72;;;-144.43;100.00
37486;BME280;23341;50.296;18.960;2023-05-17T14:35:05;52247.72;;;-144.43;100.00
37486;BME280;23341;50.296;18.960;2023-05-17T14:40:11;52177.69;;;-144.43;100.00
37486;BME280;23341;50.296;18.960;2023-05-17T14:45:17;52167.69;;;-144.43;100.00
37486;BME280;23341;50.296;18.960;2023-05-17T14:50:21;52207.72;;;-144.43;100.00
37486;BME280;23341;50.296;18.960;2023-05-17T14:55:27;52199.72;;;-144.43;100.00
37486;BME280;23341;50.296;18.960;2023-05-17T15:00:33;52249.72;;;-144.43;100.00
37486;BME280;23341;50.296;18.960;2023-05-17T15:05:38;52219.72;;;-144.43;100.00
37486;BME280;23341;50.296;18.960;2023-05-17T15:10:42;52179.69;;;-144.43;100.00
37486;BME280;23341;50.296;18.960;2023-05-17T15:15:48;52187.72;;;-144.43;100.00
37486;BME280;23341;50.296;18.960;2023-05-17T15:20:53;52205.69;;;-144.43;100.00
37486;BME280;23341;50.296;18.960;2023-05-17T15:25:58;52209.72;;;-144.43;100.00
37486;BME280;23341;50.296;18.960;2023-05-17T15:31:04;52263.72;;;-144.43;100.00
37486;BME280;23341;50.296;18.960;2023-05-17T15:36:10;52267.72;;;-144.43;100.00
37486;BME280;23341;50.296;18.960;2023-05-17T15:41:16;52257.72;;;-144.43;100.00
37486;BME280;23341;50.296;18.960;2023-05-17T15:46:24;52245.72;;;-144.43;100.00
37486;BME280;23341;50.296;18.960;2023-05-17T15:51:29;52209.72;;;-144.43;100.00
37486;BME280;23341;50.296;18.960;2023-05-17T15:56:33;52245.72;;;-144.43;100.00
37486;BME280;23341;50.296;18.960;2023-05-17T16:01:41;52253.72;;;-144.43;100.00
37486;BME280;23341;50.296;18.960;2023-05-17T16:06:48;52245.72;;;-144.43;100.00
37486;BME280;23341;50.296;18.960;2023-05-17T16:11:52;52265.72;;;-144.43;100.00
37486;BME280;23341;50.296;18.960;2023-05-17T16:16:58;52331.72;;;-144.43;100.00
37486;BME280;23341;50.296;18.960;2023-05-17T16:22:05;52297.72;;;-144.43;100.00
37486;BME280;23341;50.296;18.960;2023-05-17T16:27:09;52305.72;;;-144.43;100.00
37486;BME280;23341;50.296;18.960;2023-05-17T16:32:15;52303.72;;;-144.43;100.00
37486;BME280;23341;50.296;18.960;2023-05-17T16:37:19;52311.72;;;-144.43;100.00
37486;BME280;23341;50.296;18.960;2023-05-17T16:42:24;52297.72;;;-144.43;100.00
37486;BME280;23341;50.296;18.960;2023-05-17T16:47:31;52283.72;;;-144.43;100.00
37486;BME280;23341;50.296;18.960;2023-05-17T16:52:36;52331.72;;;-144.43;100.00
37486;BME280;23341;50.296;18.960;2023-05-17T16:57:41;52285.72;;;-144.43;100.00
37486;BME280;23341;50.296;18.960;2023-05-17T17:02:47;52281.72;;;-144.43;100.00
37486;BME280;23341;50.296;18.960;2023-05-17T17:07:52;52283.72;;;-144.43;100.00
37486;BME280;23341;50.296;18.960;2023-05-17T17:12:56;52265.72;;;-144.43;100.00
37486;BME280;23341;50.296;18.960;2023-05-17T17:18:02;52277.72;;;-144.43;100.00
37486;BME280;23341;50.296;18.960;2023-05-17T17:23:07;52261.72;;;-144.43;100.00
37486;BME280;23341;50.296;18.960;2023-05-17T17:28:11;52281.72;;;-144.43;100.00
37486;BME280;23341;50.296;18.960;2023-05-17T17:33:17;52255.72;;;-144.43;100.00
37486;BME280;23341;50.296;18.960;2023-05-17T17:38:22;52261.72;;;-144.43;100.00
37486;BME280;23341;50.296;18.960;2023-05-17T17:43:26;52295.72;;;-144.43;100.00
37486;BME280;23341;50.296;18.960;2023-05-17T17:48:32;52233.72;;;-144.43;100.00
37486;BME280;23341;50.296;18.960;2023-05-17T17:53:37;52245.72;;;-144.43;100.00
37486;BME280;23341;50.296;18.960;2023-05-17T17:58:43;52251.72;;;-144.43;100.00
37486;BME280;23341;50.296;18.960;2023-05-17T18:03:49;52253.72;;;-144.43;100.00
37486;BME280;23341;50.296;18.960;2023-05-17T18:08:53;52241.72;;;-144.43;100.00
37486;BME280;23341;50.296;18.960;2023-05-17T18:13:59;52269.72;;;-144.43;100.00
37486;BME280;23341;50.296;18.960;2023-05-17T18:19:05;52265.72;;;-144.43;100.00
37486;BME280;23341;50.296;18.960;2023-05-17T18:24:10;52281.72;;;-144.43;100.00
37486;BME280;23341;50.296;18.960;2023-05-17T18:29:14;52255.72;;;-144.43;100.00
37486;BME280;23341;50.296;18.960;2023-05-17T18:34:20;52257.72;;;-144.43;100.00
37486;BME280;23341;50.296;18.960;2023-05-17T18:39:27;52265.72;;;-144.43;100.00
37486;BME280;23341;50.296;18.960;2023-05-17T18:44:32;52229.72;;;-144.43;100.00
37486;BME280;23341;50.296;18.960;2023-05-17T18:49:38;52277.72;;;-144.43;100.00
37486;BME280;23341;50.296;18.960;2023-05-17T18:54:47;52225.72;;;-144.43;100.00
37486;BME280;23341;50.296;18.960;2023-05-17T18:59:51;52259.72;;;-144.43;100.00
37486;BME280;23341;50.296;18.960;2023-05-17T19:04:57;52245.72;;;-144.43;100.00
37486;BME280;23341;50.296;18.960;2023-05-17T19:10:02;52233.72;;;-144.43;100.00
37486;BME280;23341;50.296;18.960;2023-05-17T19:15:07;52207.72;;;-144.43;100.00
37486;BME280;23341;50.296;18.960;2023-05-17T19:20:13;52193.72;;;-144.43;100.00
37486;BME280;23341;50.296;18.960;2023-05-17T19:25:18;52185.69;;;-144.43;100.00
37486;BME280;23341;50.296;18.960;2023-05-17T19:30:22;52209.72;;;-144.43;100.00
37486;BME280;23341;50.296;18.960;2023-05-17T19:35:28;52177.69;;;-144.43;100.00
37486;BME280;23341;50.296;18.960;2023-05-17T19:40:34;52207.72;;;-144.43;100.00
37486;BME280;23341;50.296;18.960;2023-05-17T19:45:38;52189.72;;;-144.43;100.00
37486;BME280;23341;50.296;18.960;2023-05-17T19:50:46;52209.72;;;-144.43;100.00
37486;BME280;23341;50.296;18.960;2023-05-17T19:55:50;52153.69;;;-144.43;100.00
37486;BME280;23341;50.296;18.960;2023-05-17T20:00:55;52183.69;;;-144.43;100.00
37486;BME280;23341;50.296;18.960;2023-05-17T20:06:01;52197.72;;;-144.43;100.00
37486;BME280;23341;50.296;18.960;2023-05-17T20:11:05;52209.72;;;-144.43;100.00
37486;BME280;23341;50.296;18.960;2023-05-17T20:16:10;52177.69;;;-144.43;100.00
37486;BME280;23341;50.296;18.960;2023-05-17T20:21:16;52153.69;;;-144.43;100.00
37486;BME280;23341;50.296;18.960;2023-05-17T20:26:21;52221.72;;;-144.43;100.00
37486;BME280;23341;50.296;18.960;2023-05-17T20:31:28;52189.72;;;-144.43;100.00
37486;BME280;23341;50.296;18.960;2023-05-17T20:36:34;52157.69;;;-144.43;100.00
37486;BME280;23341;50.296;18.960;2023-05-17T20:41:39;52149.69;;;-144.43;100.00
37486;BME280;23341;50.296;18.960;2023-05-17T20:46:43;52133.69;;;-144.43;100.00
37486;BME280;23341;50.296;18.960;2023-05-17T20:51:49;52153.69;;;-144.43;100.00
37486;BME280;23341;50.296;18.960;2023-05-17T20:56:54;52135.69;;;-144.43;100.00
37486;BME280;23341;50.296;18.960;2023-05-17T21:01:59;52171.69;;;-144.43;100.00
37486;BME280;23341;50.296;18.960;2023-05-17T21:07:06;52161.69;;;-144.43;100.00
37486;BME280;23341;50.296;18.960;2023-05-17T21:12:12;52205.69;;;-144.43;100.00
37486;BME280;23341;50.296;18.960;2023-05-17T21:17:16;52135.69;;;-144.43;100.00
37486;BME280;23341;50.296;18.960;2023-05-17T21:22:22;52177.69;;;-144.43;100.00
37486;BME280;23341;50.296;18.960;2023-05-17T21:27:26;52115.69;;;-144.43;100.00
37486;BME280;23341;50.296;18.960;2023-05-17T21:32:31;52129.69;;;-144.43;100.00
37486;BME280;23341;50.296;18.960;2023-05-17T21:37:37;52159.69;;;-144.43;100.00
37486;BME280;23341;50.296;18.960;2023-05-17T21:42:41;52131.69;;;-144.43;100.00
37486;BME280;23341;50.296;18.960;2023-05-17T21:47:46;52145.69;;;-144.43;100.00
37486;BME280;23341;50.296;18.960;2023-05-17T21:52:51;52085.69;;;-144.43;100.00
37486;BME280;23341;50.296;18.960;2023-05-17T21:57:58;52125.69;;;-144.43;100.00
37486;BME280;23341;50.296;18.960;2023-05-17T22:03:03;52119.69;;;-144.43;100.00
37486;BME280;23341;50.296;18.960;2023-05-17T22:08:09;52129.69;;;-144.43;100.00
37486;BME280;23341;50.296;18.960;2023-05-17T22:13:13;52069.69;;;-144.43;100.00
37486;BME280;23341;50.296;18.960;2023-05-17T22:18:20;52105.69;;;-144.43;100.00
37486;BME280;23341;50.296;18.960;2023-05-17T22:23:26;52117.69;;;-144.43;100.00
37486;BME280;23341;50.296;18.960;2023-05-17T22:28:32;52093.69;;;-144.43;100.00
37486;BME280;23341;50.296;18.960;2023-05-17T22:33:36;52077.69;;;-144.43;100.00
37486;BME280;23341;50.296;18.960;2023-05-17T22:38:42;52125.69;;;-144.43;100.00
37486;BME280;23341;50.296;18.960;2023-05-17T22:43:47;52105.69;;;-144.43;100.00
37486;BME280;23341;50.296;18.960;2023-05-17T22:48:52;52117.69;;;-144.43;100.00
37486;BME280;23341;50.296;18.960;2023-05-17T22:54:01;52101.69;;;-144.43;100.00
37486;BME280;23341;50.296;18.960;2023-05-17T22:59:05;52077.69;;;-144.43;100.00
37486;BME280;23341;50.296;18.960;2023-05-17T23:04:10;52065.69;;;-144.43;100.00
37486;BME280;23341;50.296;18.960;2023-05-17T23:09:17;52059.69;;;-144.43;100.00
37486;BME280;23341;50.296;18.960;2023-05-17T23:14:21;52069.69;;;-144.43;100.00
37486;BME280;23341;50.296;18.960;2023-05-17T23:19:26;52057.69;;;-144.43;100.00
37486;BME280;23341;50.296;18.960;2023-05-17T23:24:32;52029.69;;;-144.43;100.00
37486;BME280;23341;50.296;18.960;2023-05-17T23:29:40;52085.69;;;-144.43;100.00
37486;BME280;23341;50.296;18.960;2023-05-17T23:34:44;52021.69;;;-144.43;100.00
37486;BME280;23341;50.296;18.960;2023-05-17T23:39:50;52041.69;;;-144.43;100.00
37486;BME280;23341;50.296;18.960;2023-05-17T23:44:54;52029.69;;;-144.43;100.00
37486;BME280;23341;50.296;18.960;2023-05-17T23:49:59;52041.69;;;-144.43;100.00
37486;BME280;23341;50.296;18.960;2023-05-17T23:55:07;52011.69;;;-144.43;100.00
